sensor_id;sensor_type;location;lat;lon;timestamp;temperature;humidity
52381;DHT22;38310;52.796;6.942;2022-09-17T00:01:07;10.50;99.90
52381;DHT22;38310;52.796;6.942;2022-09-17T00:03:33;10.40;99.90
52381;DHT22;38310;52.796;6.942;2022-09-17T00:06:02;10.40;99.90
52381;DHT22;38310;52.796;6.942;2022-09-17T00:08:28;10.40;99.90
52381;DHT22;38310;52.796;6.942;2022-09-17T00:10:54;10.30;99.90
52381;DHT22;38310;52.796;6.942;2022-09-17T00:13:20;10.10;99.90
52381;DHT22;38310;52.796;6.942;2022-09-17T00:15:46;10.30;99.90
52381;DHT22;38310;52.796;6.942;2022-09-17T00:18:13;10.30;99.90
52381;DHT22;38310;52.796;6.942;2022-09-17T00:20:44;10.20;99.90
52381;DHT22;38310;52.796;6.942;2022-09-17T00:23:11;10.10;99.90
52381;DHT22;38310;52.796;6.942;2022-09-17T00:25:39;10.10;99.90
52381;DHT22;38310;52.796;6.942;2022-09-17T00:28:05;10.00;99.90
52381;DHT22;38310;52.796;6.942;2022-09-17T00:30:31;10.00;99.90
52381;DHT22;38310;52.796;6.942;2022-09-17T00:32:56;9.90;99.90
52381;DHT22;38310;52.796;6.942;2022-09-17T00:35:27;9.90;99.90
52381;DHT22;38310;52.796;6.942;2022-09-17T00:37:53;9.90;99.90
52381;DHT22;38310;52.796;6.942;2022-09-17T00:40:19;9.90;99.90
52381;DHT22;38310;52.796;6.942;2022-09-17T00:42:45;9.80;99.90
52381;DHT22;38310;52.796;6.942;2022-09-17T00:45:11;9.80;99.90
52381;DHT22;38310;52.796;6.942;2022-09-17T00:50:14;9.80;99.90
52381;DHT22;38310;52.796;6.942;2022-09-17T00:52:45;9.70;99.90
52381;DHT22;38310;52.796;6.942;2022-09-17T00:55:26;9.70;99.90
52381;DHT22;38310;52.796;6.942;2022-09-17T00:57:55;9.70;99.90
52381;DHT22;38310;52.796;6.942;2022-09-17T01:00:24;9.70;99.90
52381;DHT22;38310;52.796;6.942;2022-09-17T01:02:51;9.70;99.90
52381;DHT22;38310;52.796;6.942;2022-09-17T01:05:32;9.60;99.90
52381;DHT22;38310;52.796;6.942;2022-09-17T01:17:06;9.60;99.90
52381;DHT22;38310;52.796;6.942;2022-09-17T01:25:19;9.50;99.90
52381;DHT22;38310;52.796;6.942;2022-09-17T01:38:29;9.50;99.90
52381;DHT22;38310;52.796;6.942;2022-09-17T01:43:37;9.60;99.90
52381;DHT22;38310;52.796;6.942;2022-09-17T01:46:16;9.40;99.90
52381;DHT22;38310;52.796;6.942;2022-09-17T01:48:46;9.40;99.90
52381;DHT22;38310;52.796;6.942;2022-09-17T01:51:17;9.40;99.90
52381;DHT22;38310;52.796;6.942;2022-09-17T01:53:50;9.40;99.90
52381;DHT22;38310;52.796;6.942;2022-09-17T01:56:21;9.40;99.90
52381;DHT22;38310;52.796;6.942;2022-09-17T01:59:28;9.40;99.90
52381;DHT22;38310;52.796;6.942;2022-09-17T02:02:02;9.40;99.90
52381;DHT22;38310;52.796;6.942;2022-09-17T02:04:41;9.30;99.90
52381;DHT22;38310;52.796;6.942;2022-09-17T02:07:15;9.30;99.90
52381;DHT22;38310;52.796;6.942;2022-09-17T02:09:55;9.30;99.90
52381;DHT22;38310;52.796;6.942;2022-09-17T02:12:28;9.30;99.90
52381;DHT22;38310;52.796;6.942;2022-09-17T02:14:57;9.40;99.90
52381;DHT22;38310;52.796;6.942;2022-09-17T02:17:33;9.30;99.90
52381;DHT22;38310;52.796;6.942;2022-09-17T02:20:02;9.30;99.90
52381;DHT22;38310;52.796;6.942;2022-09-17T02:22:38;9.30;99.90
52381;DHT22;38310;52.796;6.942;2022-09-17T02:25:35;9.30;99.90
52381;DHT22;38310;52.796;6.942;2022-09-17T02:28:25;9.30;99.90
52381;DHT22;38310;52.796;6.942;2022-09-17T02:30:53;9.20;99.90
52381;DHT22;38310;52.796;6.942;2022-09-17T02:33:19;9.20;99.90
52381;DHT22;38310;52.796;6.942;2022-09-17T02:35:45;9.20;99.90
52381;DHT22;38310;52.796;6.942;2022-09-17T02:38:12;9.20;99.90
52381;DHT22;38310;52.796;6.942;2022-09-17T02:40:46;9.20;99.90
52381;DHT22;38310;52.796;6.942;2022-09-17T02:43:24;9.50;99.90
52381;DHT22;38310;52.796;6.942;2022-09-17T02:49:33;9.10;99.90
52381;DHT22;38310;52.796;6.942;2022-09-17T03:02:48;9.10;99.90
52381;DHT22;38310;52.796;6.942;2022-09-17T03:05:17;9.10;99.90
52381;DHT22;38310;52.796;6.942;2022-09-17T03:07:44;9.20;99.90
52381;DHT22;38310;52.796;6.942;2022-09-17T03:10:10;9.10;99.90
52381;DHT22;38310;52.796;6.942;2022-09-17T03:12:36;9.10;99.90
52381;DHT22;38310;52.796;6.942;2022-09-17T03:15:02;9.10;99.90
52381;DHT22;38310;52.796;6.942;2022-09-17T03:17:29;9.10;99.90
52381;DHT22;38310;52.796;6.942;2022-09-17T03:19:55;9.10;99.90
52381;DHT22;38310;52.796;6.942;2022-09-17T03:22:20;9.20;99.90
52381;DHT22;38310;52.796;6.942;2022-09-17T03:24:46;9.20;99.90
52381;DHT22;38310;52.796;6.942;2022-09-17T03:27:12;9.20;99.90
52381;DHT22;38310;52.796;6.942;2022-09-17T03:29:38;9.30;99.90
52381;DHT22;38310;52.796;6.942;2022-09-17T03:32:03;9.40;99.90
52381;DHT22;38310;52.796;6.942;2022-09-17T03:34:29;9.30;99.90
52381;DHT22;38310;52.796;6.942;2022-09-17T03:36:55;9.20;99.90
52381;DHT22;38310;52.796;6.942;2022-09-17T03:39:21;9.20;99.90
52381;DHT22;38310;52.796;6.942;2022-09-17T03:41:47;9.40;99.90
52381;DHT22;38310;52.796;6.942;2022-09-17T03:44:12;9.20;99.90
52381;DHT22;38310;52.796;6.942;2022-09-17T03:46:40;9.20;99.90
52381;DHT22;38310;52.796;6.942;2022-09-17T03:49:05;9.20;99.90
52381;DHT22;38310;52.796;6.942;2022-09-17T03:51:31;9.20;99.90
52381;DHT22;38310;52.796;6.942;2022-09-17T03:53:57;9.20;99.90
52381;DHT22;38310;52.796;6.942;2022-09-17T03:56:23;9.20;99.90
52381;DHT22;38310;52.796;6.942;2022-09-17T03:58:48;9.20;99.90
52381;DHT22;38310;52.796;6.942;2022-09-17T04:01:14;9.20;99.90
52381;DHT22;38310;52.796;6.942;2022-09-17T04:03:40;9.20;99.90
52381;DHT22;38310;52.796;6.942;2022-09-17T04:06:06;9.20;99.90
52381;DHT22;38310;52.796;6.942;2022-09-17T04:08:32;9.20;99.90
52381;DHT22;38310;52.796;6.942;2022-09-17T04:10:58;9.20;99.90
52381;DHT22;38310;52.796;6.942;2022-09-17T04:13:24;9.20;99.90
52381;DHT22;38310;52.796;6.942;2022-09-17T04:15:49;9.20;99.90
52381;DHT22;38310;52.796;6.942;2022-09-17T04:18:16;9.20;99.90
52381;DHT22;38310;52.796;6.942;2022-09-17T04:20:42;9.20;99.90
52381;DHT22;38310;52.796;6.942;2022-09-17T04:23:10;9.30;99.90
52381;DHT22;38310;52.796;6.942;2022-09-17T04:25:36;9.40;99.90
52381;DHT22;38310;52.796;6.942;2022-09-17T04:28:02;9.40;99.90
52381;DHT22;38310;52.796;6.942;2022-09-17T04:30:28;9.40;99.90
52381;DHT22;38310;52.796;6.942;2022-09-17T04:32:54;9.40;99.90
52381;DHT22;38310;52.796;6.942;2022-09-17T04:35:19;9.30;99.90
52381;DHT22;38310;52.796;6.942;2022-09-17T04:37:54;9.50;99.90
52381;DHT22;38310;52.796;6.942;2022-09-17T04:40:21;9.30;99.90
52381;DHT22;38310;52.796;6.942;2022-09-17T04:42:47;9.30;99.90
52381;DHT22;38310;52.796;6.942;2022-09-17T04:45:13;9.30;99.90
52381;DHT22;38310;52.796;6.942;2022-09-17T04:47:39;9.20;99.90
52381;DHT22;38310;52.796;6.942;2022-09-17T04:50:05;9.20;99.90
52381;DHT22;38310;52.796;6.942;2022-09-17T04:52:31;9.20;99.90
52381;DHT22;38310;52.796;6.942;2022-09-17T04:54:58;9.40;99.90
52381;DHT22;38310;52.796;6.942;2022-09-17T04:57:23;9.00;99.90
52381;DHT22;38310;52.796;6.942;2022-09-17T04:59:51;9.00;99.90
52381;DHT22;38310;52.796;6.942;2022-09-17T05:02:16;9.00;99.90
52381;DHT22;38310;52.796;6.942;2022-09-17T05:04:42;8.90;99.90
52381;DHT22;38310;52.796;6.942;2022-09-17T05:07:08;9.00;99.90
52381;DHT22;38310;52.796;6.942;2022-09-17T05:09:34;9.00;99.90
52381;DHT22;38310;52.796;6.942;2022-09-17T05:11:59;8.90;99.90
52381;DHT22;38310;52.796;6.942;2022-09-17T05:14:25;8.90;99.90
52381;DHT22;38310;52.796;6.942;2022-09-17T05:16:51;8.80;99.90
52381;DHT22;38310;52.796;6.942;2022-09-17T05:19:16;8.90;99.90
52381;DHT22;38310;52.796;6.942;2022-09-17T05:21:43;8.90;99.90
52381;DHT22;38310;52.796;6.942;2022-09-17T05:24:08;8.80;99.90
52381;DHT22;38310;52.796;6.942;2022-09-17T05:26:34;8.90;99.90
52381;DHT22;38310;52.796;6.942;2022-09-17T05:29:00;8.90;99.90
52381;DHT22;38310;52.796;6.942;2022-09-17T05:31:25;8.90;99.90
52381;DHT22;38310;52.796;6.942;2022-09-17T05:33:51;8.90;99.90
52381;DHT22;38310;52.796;6.942;2022-09-17T05:36:17;8.80;99.90
52381;DHT22;38310;52.796;6.942;2022-09-17T05:38:42;8.90;99.90
52381;DHT22;38310;52.796;6.942;2022-09-17T05:41:08;8.90;99.90
52381;DHT22;38310;52.796;6.942;2022-09-17T05:43:34;8.90;99.90
52381;DHT22;38310;52.796;6.942;2022-09-17T05:46:01;8.90;99.90
52381;DHT22;38310;52.796;6.942;2022-09-17T05:48:27;8.90;99.90
52381;DHT22;38310;52.796;6.942;2022-09-17T05:50:54;8.90;99.90
52381;DHT22;38310;52.796;6.942;2022-09-17T05:53:20;8.90;99.90
52381;DHT22;38310;52.796;6.942;2022-09-17T05:55:46;8.90;99.90
52381;DHT22;38310;52.796;6.942;2022-09-17T05:58:16;8.90;99.90
52381;DHT22;38310;52.796;6.942;2022-09-17T06:00:44;9.00;99.90
52381;DHT22;38310;52.796;6.942;2022-09-17T06:03:12;9.00;99.90
52381;DHT22;38310;52.796;6.942;2022-09-17T06:05:38;9.00;99.90
52381;DHT22;38310;52.796;6.942;2022-09-17T06:08:04;9.10;99.90
52381;DHT22;38310;52.796;6.942;2022-09-17T06:10:30;9.20;99.90
52381;DHT22;38310;52.796;6.942;2022-09-17T06:12:57;9.40;99.90
52381;DHT22;38310;52.796;6.942;2022-09-17T06:15:24;9.50;99.90
52381;DHT22;38310;52.796;6.942;2022-09-17T06:17:50;9.50;99.90
52381;DHT22;38310;52.796;6.942;2022-09-17T06:20:17;9.60;99.90
52381;DHT22;38310;52.796;6.942;2022-09-17T06:22:43;9.70;99.90
52381;DHT22;38310;52.796;6.942;2022-09-17T06:25:09;9.80;99.90
52381;DHT22;38310;52.796;6.942;2022-09-17T06:27:35;10.00;99.90
52381;DHT22;38310;52.796;6.942;2022-09-17T06:30:01;10.00;99.90
52381;DHT22;38310;52.796;6.942;2022-09-17T06:32:27;10.10;99.90
52381;DHT22;38310;52.796;6.942;2022-09-17T06:34:53;10.10;99.90
52381;DHT22;38310;52.796;6.942;2022-09-17T06:37:26;10.10;99.90
52381;DHT22;38310;52.796;6.942;2022-09-17T06:39:52;10.00;99.90
52381;DHT22;38310;52.796;6.942;2022-09-17T06:42:18;10.00;99.90
52381;DHT22;38310;52.796;6.942;2022-09-17T06:44:44;9.90;99.90
52381;DHT22;38310;52.796;6.942;2022-09-17T06:47:09;9.90;99.90
52381;DHT22;38310;52.796;6.942;2022-09-17T06:49:35;9.90;99.90
52381;DHT22;38310;52.796;6.942;2022-09-17T06:52:01;9.90;99.90
52381;DHT22;38310;52.796;6.942;2022-09-17T06:54:28;9.90;99.90
52381;DHT22;38310;52.796;6.942;2022-09-17T06:56:54;9.90;99.90
52381;DHT22;38310;52.796;6.942;2022-09-17T06:59:20;10.20;99.90
52381;DHT22;38310;52.796;6.942;2022-09-17T07:01:46;10.00;99.90
52381;DHT22;38310;52.796;6.942;2022-09-17T07:04:12;10.00;99.90
52381;DHT22;38310;52.796;6.942;2022-09-17T07:06:38;10.00;99.90
52381;DHT22;38310;52.796;6.942;2022-09-17T07:09:04;10.00;99.90
52381;DHT22;38310;52.796;6.942;2022-09-17T07:11:32;10.00;99.90
52381;DHT22;38310;52.796;6.942;2022-09-17T07:13:58;10.00;99.90
52381;DHT22;38310;52.796;6.942;2022-09-17T07:16:24;10.00;99.90
52381;DHT22;38310;52.796;6.942;2022-09-17T07:18:51;10.00;99.90
52381;DHT22;38310;52.796;6.942;2022-09-17T07:21:17;10.00;99.90
52381;DHT22;38310;52.796;6.942;2022-09-17T07:23:43;10.00;99.90
52381;DHT22;38310;52.796;6.942;2022-09-17T07:26:14;10.10;99.90
52381;DHT22;38310;52.796;6.942;2022-09-17T07:28:40;10.20;99.90
52381;DHT22;38310;52.796;6.942;2022-09-17T07:31:08;10.30;99.90
52381;DHT22;38310;52.796;6.942;2022-09-17T07:33:35;10.40;99.90
52381;DHT22;38310;52.796;6.942;2022-09-17T07:36:12;10.40;99.90
52381;DHT22;38310;52.796;6.942;2022-09-17T07:38:38;10.40;99.90
52381;DHT22;38310;52.796;6.942;2022-09-17T07:41:09;10.50;99.90
52381;DHT22;38310;52.796;6.942;2022-09-17T07:43:37;10.60;99.90
52381;DHT22;38310;52.796;6.942;2022-09-17T07:46:05;10.70;99.90
52381;DHT22;38310;52.796;6.942;2022-09-17T07:48:31;10.70;99.90
52381;DHT22;38310;52.796;6.942;2022-09-17T07:50:57;10.70;99.90
52381;DHT22;38310;52.796;6.942;2022-09-17T07:53:23;10.90;99.90
52381;DHT22;38310;52.796;6.942;2022-09-17T07:55:53;11.00;99.90
52381;DHT22;38310;52.796;6.942;2022-09-17T07:58:21;11.10;99.90
52381;DHT22;38310;52.796;6.942;2022-09-17T08:00:47;11.10;99.90
52381;DHT22;38310;52.796;6.942;2022-09-17T08:03:13;11.20;99.90
52381;DHT22;38310;52.796;6.942;2022-09-17T08:05:39;10.70;99.90
52381;DHT22;38310;52.796;6.942;2022-09-17T08:08:05;11.10;99.90
52381;DHT22;38310;52.796;6.942;2022-09-17T08:10:31;11.10;99.90
52381;DHT22;38310;52.796;6.942;2022-09-17T08:12:57;11.20;99.90
52381;DHT22;38310;52.796;6.942;2022-09-17T08:15:23;11.30;99.90
52381;DHT22;38310;52.796;6.942;2022-09-17T08:17:49;11.40;99.90
52381;DHT22;38310;52.796;6.942;2022-09-17T08:20:15;11.50;99.90
52381;DHT22;38310;52.796;6.942;2022-09-17T08:22:42;12.30;99.90
52381;DHT22;38310;52.796;6.942;2022-09-17T08:25:08;11.70;99.90
52381;DHT22;38310;52.796;6.942;2022-09-17T08:27:35;11.80;99.90
52381;DHT22;38310;52.796;6.942;2022-09-17T08:30:04;11.90;99.90
52381;DHT22;38310;52.796;6.942;2022-09-17T08:32:30;12.00;99.90
52381;DHT22;38310;52.796;6.942;2022-09-17T08:34:56;12.20;99.90
52381;DHT22;38310;52.796;6.942;2022-09-17T08:37:22;12.30;99.90
52381;DHT22;38310;52.796;6.942;2022-09-17T08:39:48;12.40;99.90
52381;DHT22;38310;52.796;6.942;2022-09-17T08:42:38;12.50;99.90
52381;DHT22;38310;52.796;6.942;2022-09-17T08:45:10;12.60;99.90
52381;DHT22;38310;52.796;6.942;2022-09-17T08:47:40;12.80;99.90
52381;DHT22;38310;52.796;6.942;2022-09-17T08:50:16;12.90;99.90
52381;DHT22;38310;52.796;6.942;2022-09-17T08:55:50;12.90;99.90
52381;DHT22;38310;52.796;6.942;2022-09-17T09:09:33;11.80;99.90
52381;DHT22;38310;52.796;6.942;2022-09-17T09:12:05;11.90;99.90
52381;DHT22;38310;52.796;6.942;2022-09-17T09:14:46;12.00;99.90
52381;DHT22;38310;52.796;6.942;2022-09-17T09:17:16;12.00;99.90
52381;DHT22;38310;52.796;6.942;2022-09-17T09:19:46;12.10;99.90
52381;DHT22;38310;52.796;6.942;2022-09-17T09:22:48;12.10;99.90
52381;DHT22;38310;52.796;6.942;2022-09-17T09:28:16;12.50;99.90
52381;DHT22;38310;52.796;6.942;2022-09-17T09:33:55;12.80;99.90
52381;DHT22;38310;52.796;6.942;2022-09-17T09:36:21;13.70;99.90
52381;DHT22;38310;52.796;6.942;2022-09-17T09:39:32;13.20;99.90
52381;DHT22;38310;52.796;6.942;2022-09-17T09:42:42;13.30;99.90
52381;DHT22;38310;52.796;6.942;2022-09-17T09:45:15;13.20;99.90
52381;DHT22;38310;52.796;6.942;2022-09-17T09:48:09;13.30;99.90
52381;DHT22;38310;52.796;6.942;2022-09-17T09:58:57;13.50;99.90
52381;DHT22;38310;52.796;6.942;2022-09-17T10:01:53;12.90;99.90
52381;DHT22;38310;52.796;6.942;2022-09-17T10:04:24;13.50;99.90
52381;DHT22;38310;52.796;6.942;2022-09-17T10:06:52;13.40;99.90
52381;DHT22;38310;52.796;6.942;2022-09-17T10:09:20;13.20;99.90
52381;DHT22;38310;52.796;6.942;2022-09-17T10:12:05;12.90;99.90
52381;DHT22;38310;52.796;6.942;2022-09-17T10:14:33;12.70;99.90
52381;DHT22;38310;52.796;6.942;2022-09-17T10:17:23;12.90;99.90
52381;DHT22;38310;52.796;6.942;2022-09-17T10:22:45;13.10;99.90
52381;DHT22;38310;52.796;6.942;2022-09-17T10:25:31;12.80;99.90
52381;DHT22;38310;52.796;6.942;2022-09-17T10:28:03;12.70;99.90
52381;DHT22;38310;52.796;6.942;2022-09-17T10:30:30;12.60;99.90
52381;DHT22;38310;52.796;6.942;2022-09-17T10:33:17;12.50;99.90
52381;DHT22;38310;52.796;6.942;2022-09-17T10:36:14;12.50;99.90
52381;DHT22;38310;52.796;6.942;2022-09-17T10:38:42;12.40;99.90
52381;DHT22;38310;52.796;6.942;2022-09-17T10:41:11;12.80;99.90
52381;DHT22;38310;52.796;6.942;2022-09-17T10:43:38;13.10;99.90
52381;DHT22;38310;52.796;6.942;2022-09-17T10:46:04;13.30;99.90
52381;DHT22;38310;52.796;6.942;2022-09-17T10:48:37;13.60;99.90
52381;DHT22;38310;52.796;6.942;2022-09-17T10:51:04;14.00;99.90
52381;DHT22;38310;52.796;6.942;2022-09-17T10:53:37;14.30;99.90
52381;DHT22;38310;52.796;6.942;2022-09-17T10:56:28;14.60;99.90
52381;DHT22;38310;52.796;6.942;2022-09-17T10:59:22;14.80;99.90
52381;DHT22;38310;52.796;6.942;2022-09-17T11:07:53;15.40;99.90
52381;DHT22;38310;52.796;6.942;2022-09-17T11:13:02;16.30;99.90
52381;DHT22;38310;52.796;6.942;2022-09-17T11:21:21;15.50;99.90
52381;DHT22;38310;52.796;6.942;2022-09-17T11:26:50;14.90;99.90
52381;DHT22;38310;52.796;6.942;2022-09-17T11:31:55;14.50;99.90
52381;DHT22;38310;52.796;6.942;2022-09-17T11:34:36;14.10;99.90
52381;DHT22;38310;52.796;6.942;2022-09-17T11:37:22;14.10;99.90
52381;DHT22;38310;52.796;6.942;2022-09-17T11:40:20;14.00;99.90
52381;DHT22;38310;52.796;6.942;2022-09-17T11:42:55;13.80;99.90
52381;DHT22;38310;52.796;6.942;2022-09-17T11:45:38;13.40;99.90
52381;DHT22;38310;52.796;6.942;2022-09-17T11:48:11;13.30;99.90
52381;DHT22;38310;52.796;6.942;2022-09-17T11:50:59;13.10;99.90
52381;DHT22;38310;52.796;6.942;2022-09-17T11:56:30;14.00;99.90
52381;DHT22;38310;52.796;6.942;2022-09-17T12:04:00;14.90;99.90
52381;DHT22;38310;52.796;6.942;2022-09-17T12:06:38;14.70;99.90
52381;DHT22;38310;52.796;6.942;2022-09-17T12:09:14;14.70;99.90
52381;DHT22;38310;52.796;6.942;2022-09-17T12:12:17;14.50;99.90
52381;DHT22;38310;52.796;6.942;2022-09-17T12:14:52;14.20;99.90
52381;DHT22;38310;52.796;6.942;2022-09-17T12:17:24;14.30;99.90
52381;DHT22;38310;52.796;6.942;2022-09-17T12:19:55;14.40;99.90
52381;DHT22;38310;52.796;6.942;2022-09-17T12:22:25;14.90;99.90
52381;DHT22;38310;52.796;6.942;2022-09-17T12:24:52;15.30;99.90
52381;DHT22;38310;52.796;6.942;2022-09-17T12:27:50;15.90;99.90
52381;DHT22;38310;52.796;6.942;2022-09-17T12:30:20;16.50;99.90
52381;DHT22;38310;52.796;6.942;2022-09-17T12:33:24;17.10;99.90
52381;DHT22;38310;52.796;6.942;2022-09-17T12:41:30;17.60;99.90
52381;DHT22;38310;52.796;6.942;2022-09-17T12:58:18;18.10;99.90
52381;DHT22;38310;52.796;6.942;2022-09-17T13:00:50;18.00;99.90
52381;DHT22;38310;52.796;6.942;2022-09-17T13:03:38;18.00;99.90
52381;DHT22;38310;52.796;6.942;2022-09-17T13:11:55;18.70;99.90
52381;DHT22;38310;52.796;6.942;2022-09-17T13:21:02;18.80;99.90
52381;DHT22;38310;52.796;6.942;2022-09-17T13:23:41;18.40;99.90
52381;DHT22;38310;52.796;6.942;2022-09-17T13:26:09;18.00;99.90
52381;DHT22;38310;52.796;6.942;2022-09-17T13:28:41;17.50;99.90
52381;DHT22;38310;52.796;6.942;2022-09-17T13:31:07;17.80;99.90
52381;DHT22;38310;52.796;6.942;2022-09-17T13:39:38;17.20;99.90
52381;DHT22;38310;52.796;6.942;2022-09-17T13:42:15;17.20;99.90
52381;DHT22;38310;52.796;6.942;2022-09-17T13:44:51;16.90;99.90
52381;DHT22;38310;52.796;6.942;2022-09-17T13:47:25;16.80;99.90
52381;DHT22;38310;52.796;6.942;2022-09-17T13:50:02;16.80;99.90
52381;DHT22;38310;52.796;6.942;2022-09-17T13:52:43;16.80;99.90
52381;DHT22;38310;52.796;6.942;2022-09-17T13:55:36;17.00;99.90
52381;DHT22;38310;52.796;6.942;2022-09-17T13:58:25;17.60;99.90
52381;DHT22;38310;52.796;6.942;2022-09-17T14:01:11;17.80;99.90
52381;DHT22;38310;52.796;6.942;2022-09-17T14:13:54;17.70;99.90
52381;DHT22;38310;52.796;6.942;2022-09-17T14:19:31;17.50;99.90
52381;DHT22;38310;52.796;6.942;2022-09-17T14:22:01;17.70;99.90
52381;DHT22;38310;52.796;6.942;2022-09-17T14:24:39;17.60;99.90
52381;DHT22;38310;52.796;6.942;2022-09-17T14:33:06;17.30;99.90
52381;DHT22;38310;52.796;6.942;2022-09-17T14:35:49;17.30;99.90
52381;DHT22;38310;52.796;6.942;2022-09-17T14:38:26;17.20;99.90
52381;DHT22;38310;52.796;6.942;2022-09-17T14:46:19;16.80;99.90
52381;DHT22;38310;52.796;6.942;2022-09-17T14:48:45;16.70;99.90
52381;DHT22;38310;52.796;6.942;2022-09-17T14:54:10;16.50;99.90
52381;DHT22;38310;52.796;6.942;2022-09-17T14:56:47;16.30;99.90
52381;DHT22;38310;52.796;6.942;2022-09-17T15:00:02;16.30;99.90
52381;DHT22;38310;52.796;6.942;2022-09-17T15:02:33;16.20;99.90
52381;DHT22;38310;52.796;6.942;2022-09-17T15:05:00;15.90;99.90
52381;DHT22;38310;52.796;6.942;2022-09-17T15:07:28;15.60;99.90
52381;DHT22;38310;52.796;6.942;2022-09-17T15:10:05;15.50;99.90
52381;DHT22;38310;52.796;6.942;2022-09-17T15:12:31;15.20;99.90
52381;DHT22;38310;52.796;6.942;2022-09-17T15:14:57;14.90;99.90
52381;DHT22;38310;52.796;6.942;2022-09-17T15:17:23;14.70;99.90
52381;DHT22;38310;52.796;6.942;2022-09-17T15:19:51;14.50;99.90
52381;DHT22;38310;52.796;6.942;2022-09-17T15:22:38;14.30;99.90
52381;DHT22;38310;52.796;6.942;2022-09-17T15:25:08;14.30;99.90
52381;DHT22;38310;52.796;6.942;2022-09-17T15:27:40;14.20;99.90
52381;DHT22;38310;52.796;6.942;2022-09-17T15:30:18;14.20;99.90
52381;DHT22;38310;52.796;6.942;2022-09-17T15:32:52;14.20;99.90
52381;DHT22;38310;52.796;6.942;2022-09-17T15:35:30;14.10;99.90
52381;DHT22;38310;52.796;6.942;2022-09-17T15:38:02;14.10;99.90
52381;DHT22;38310;52.796;6.942;2022-09-17T15:40:32;14.00;99.90
52381;DHT22;38310;52.796;6.942;2022-09-17T15:45:33;13.80;99.90
52381;DHT22;38310;52.796;6.942;2022-09-17T15:48:04;14.20;99.90
52381;DHT22;38310;52.796;6.942;2022-09-17T15:50:31;13.70;99.90
52381;DHT22;38310;52.796;6.942;2022-09-17T16:03:59;13.80;99.90
52381;DHT22;38310;52.796;6.942;2022-09-17T16:08:58;13.60;99.90
52381;DHT22;38310;52.796;6.942;2022-09-17T16:11:31;13.50;99.90
52381;DHT22;38310;52.796;6.942;2022-09-17T16:13:59;13.60;99.90
52381;DHT22;38310;52.796;6.942;2022-09-17T16:16:35;13.70;99.90
52381;DHT22;38310;52.796;6.942;2022-09-17T16:19:02;13.70;99.90
52381;DHT22;38310;52.796;6.942;2022-09-17T16:21:28;13.60;99.90
52381;DHT22;38310;52.796;6.942;2022-09-17T16:23:55;13.50;99.90
52381;DHT22;38310;52.796;6.942;2022-09-17T16:26:29;13.50;99.90
52381;DHT22;38310;52.796;6.942;2022-09-17T16:29:02;13.30;99.90
52381;DHT22;38310;52.796;6.942;2022-09-17T16:31:29;13.20;99.90
52381;DHT22;38310;52.796;6.942;2022-09-17T16:33:55;13.00;99.90
52381;DHT22;38310;52.796;6.942;2022-09-17T16:36:20;13.00;99.90
52381;DHT22;38310;52.796;6.942;2022-09-17T16:38:47;12.90;99.90
52381;DHT22;38310;52.796;6.942;2022-09-17T16:41:12;12.90;99.90
52381;DHT22;38310;52.796;6.942;2022-09-17T16:43:38;12.90;99.90
52381;DHT22;38310;52.796;6.942;2022-09-17T16:46:09;12.80;99.90
52381;DHT22;38310;52.796;6.942;2022-09-17T16:48:36;12.70;99.90
52381;DHT22;38310;52.796;6.942;2022-09-17T16:51:09;12.60;99.90
52381;DHT22;38310;52.796;6.942;2022-09-17T16:53:36;12.60;99.90
52381;DHT22;38310;52.796;6.942;2022-09-17T16:56:06;12.50;99.90
52381;DHT22;38310;52.796;6.942;2022-09-17T16:58:33;12.40;99.90
52381;DHT22;38310;52.796;6.942;2022-09-17T17:01:05;12.40;99.90
52381;DHT22;38310;52.796;6.942;2022-09-17T17:03:31;12.30;99.90
52381;DHT22;38310;52.796;6.942;2022-09-17T17:05:57;12.30;99.90
52381;DHT22;38310;52.796;6.942;2022-09-17T17:08:22;12.10;99.90
52381;DHT22;38310;52.796;6.942;2022-09-17T17:10:48;12.10;99.90
52381;DHT22;38310;52.796;6.942;2022-09-17T17:13:14;12.10;99.90
52381;DHT22;38310;52.796;6.942;2022-09-17T17:15:40;12.00;99.90
52381;DHT22;38310;52.796;6.942;2022-09-17T17:18:06;12.00;99.90
52381;DHT22;38310;52.796;6.942;2022-09-17T17:20:34;11.90;99.90
52381;DHT22;38310;52.796;6.942;2022-09-17T17:23:00;11.90;99.90
52381;DHT22;38310;52.796;6.942;2022-09-17T17:25:26;11.90;99.90
52381;DHT22;38310;52.796;6.942;2022-09-17T17:27:53;11.80;99.90
52381;DHT22;38310;52.796;6.942;2022-09-17T17:30:18;11.80;99.90
52381;DHT22;38310;52.796;6.942;2022-09-17T17:32:49;11.70;99.90
52381;DHT22;38310;52.796;6.942;2022-09-17T17:35:14;11.70;99.90
52381;DHT22;38310;52.796;6.942;2022-09-17T17:37:40;11.70;99.90
52381;DHT22;38310;52.796;6.942;2022-09-17T17:40:06;11.70;99.90
52381;DHT22;38310;52.796;6.942;2022-09-17T17:42:36;11.70;99.90
52381;DHT22;38310;52.796;6.942;2022-09-17T17:45:08;11.70;99.90
52381;DHT22;38310;52.796;6.942;2022-09-17T17:47:34;11.60;99.90
52381;DHT22;38310;52.796;6.942;2022-09-17T17:50:00;11.60;99.90
52381;DHT22;38310;52.796;6.942;2022-09-17T17:52:26;11.60;99.90
52381;DHT22;38310;52.796;6.942;2022-09-17T17:54:52;11.60;99.90
52381;DHT22;38310;52.796;6.942;2022-09-17T17:57:18;11.60;99.90
52381;DHT22;38310;52.796;6.942;2022-09-17T17:59:43;11.60;99.90
52381;DHT22;38310;52.796;6.942;2022-09-17T18:02:10;11.60;99.90
52381;DHT22;38310;52.796;6.942;2022-09-17T18:04:36;11.60;99.90
52381;DHT22;38310;52.796;6.942;2022-09-17T18:07:02;11.60;99.90
52381;DHT22;38310;52.796;6.942;2022-09-17T18:09:28;11.60;99.90
52381;DHT22;38310;52.796;6.942;2022-09-17T18:11:54;11.60;99.90
52381;DHT22;38310;52.796;6.942;2022-09-17T18:14:20;11.60;99.90
52381;DHT22;38310;52.796;6.942;2022-09-17T18:16:46;11.40;99.90
52381;DHT22;38310;52.796;6.942;2022-09-17T18:19:12;11.50;99.90
52381;DHT22;38310;52.796;6.942;2022-09-17T18:21:37;11.40;99.90
52381;DHT22;38310;52.796;6.942;2022-09-17T18:24:03;11.40;99.90
52381;DHT22;38310;52.796;6.942;2022-09-17T18:26:29;11.40;99.90
52381;DHT22;38310;52.796;6.942;2022-09-17T18:28:56;11.40;99.90
52381;DHT22;38310;52.796;6.942;2022-09-17T18:33:48;11.20;99.90
52381;DHT22;38310;52.796;6.942;2022-09-17T18:36:14;11.20;99.90
52381;DHT22;38310;52.796;6.942;2022-09-17T18:38:40;11.10;99.90
52381;DHT22;38310;52.796;6.942;2022-09-17T18:41:09;11.10;99.90
52381;DHT22;38310;52.796;6.942;2022-09-17T18:43:36;11.00;99.90
52381;DHT22;38310;52.796;6.942;2022-09-17T18:46:02;11.00;99.90
52381;DHT22;38310;52.796;6.942;2022-09-17T18:48:29;11.00;99.90
52381;DHT22;38310;52.796;6.942;2022-09-17T18:51:06;11.00;99.90
52381;DHT22;38310;52.796;6.942;2022-09-17T18:53:35;11.00;99.90
52381;DHT22;38310;52.796;6.942;2022-09-17T18:58:30;11.00;99.90
52381;DHT22;38310;52.796;6.942;2022-09-17T19:00:56;11.00;99.90
52381;DHT22;38310;52.796;6.942;2022-09-17T19:03:22;11.00;99.90
52381;DHT22;38310;52.796;6.942;2022-09-17T19:05:47;10.90;99.90